sensor_id;sensor_type;location;lat;lon;timestamp;P1;durP1;ratioP1;P2;durP2;ratioP2
69714;SDS011;56981;53.532;49.398;2022-07-29T00:00:54;25.40;;;13.13;;
69714;SDS011;56981;53.532;49.398;2022-07-29T00:03:20;30.92;;;13.07;;
69714;SDS011;56981;53.532;49.398;2022-07-29T00:05:46;29.80;;;13.65;;
69714;SDS011;56981;53.532;49.398;2022-07-29T00:08:12;35.00;;;13.95;;
69714;SDS011;56981;53.532;49.398;2022-07-29T00:10:38;29.05;;;13.90;;
69714;SDS011;56981;53.532;49.398;2022-07-29T00:13:04;34.85;;;13.80;;
69714;SDS011;56981;53.532;49.398;2022-07-29T00:15:30;32.20;;;14.07;;
69714;SDS011;56981;53.532;49.398;2022-07-29T00:17:56;31.67;;;13.55;;
69714;SDS011;56981;53.532;49.398;2022-07-29T00:20:22;23.73;;;12.98;;
69714;SDS011;56981;53.532;49.398;2022-07-29T00:22:48;30.13;;;14.02;;
69714;SDS011;56981;53.532;49.398;2022-07-29T00:25:14;30.08;;;13.73;;
69714;SDS011;56981;53.532;49.398;2022-07-29T00:27:41;31.27;;;13.55;;
69714;SDS011;56981;53.532;49.398;2022-07-29T00:30:07;29.33;;;14.10;;
69714;SDS011;56981;53.532;49.398;2022-07-29T00:32:34;28.48;;;13.20;;
69714;SDS011;56981;53.532;49.398;2022-07-29T00:35:00;26.27;;;13.88;;
69714;SDS011;56981;53.532;49.398;2022-07-29T00:37:44;39.13;;;14.73;;
69714;SDS011;56981;53.532;49.398;2022-07-29T00:40:10;39.42;;;14.55;;
69714;SDS011;56981;53.532;49.398;2022-07-29T00:42:47;42.65;;;15.75;;
69714;SDS011;56981;53.532;49.398;2022-07-29T00:45:15;34.20;;;14.70;;
69714;SDS011;56981;53.532;49.398;2022-07-29T00:47:42;31.35;;;13.57;;
69714;SDS011;56981;53.532;49.398;2022-07-29T00:50:10;35.95;;;14.52;;
69714;SDS011;56981;53.532;49.398;2022-07-29T00:52:38;28.52;;;14.80;;
69714;SDS011;56981;53.532;49.398;2022-07-29T00:55:06;34.55;;;15.38;;
69714;SDS011;56981;53.532;49.398;2022-07-29T00:57:34;35.17;;;14.50;;
69714;SDS011;56981;53.532;49.398;2022-07-29T01:00:02;35.22;;;13.27;;
69714;SDS011;56981;53.532;49.398;2022-07-29T01:02:30;30.33;;;13.18;;
69714;SDS011;56981;53.532;49.398;2022-07-29T01:04:56;27.58;;;13.23;;
69714;SDS011;56981;53.532;49.398;2022-07-29T01:07:23;33.90;;;13.50;;
69714;SDS011;56981;53.532;49.398;2022-07-29T01:09:51;37.85;;;12.55;;
69714;SDS011;56981;53.532;49.398;2022-07-29T01:12:21;36.40;;;12.45;;
69714;SDS011;56981;53.532;49.398;2022-07-29T01:14:52;37.53;;;11.80;;
69714;SDS011;56981;53.532;49.398;2022-07-29T01:20:00;37.00;;;13.02;;
69714;SDS011;56981;53.532;49.398;2022-07-29T01:22:42;41.88;;;13.90;;
69714;SDS011;56981;53.532;49.398;2022-07-29T01:31:18;42.85;;;13.35;;
69714;SDS011;56981;53.532;49.398;2022-07-29T01:33:50;30.42;;;11.60;;
69714;SDS011;56981;53.532;49.398;2022-07-29T01:36:43;31.10;;;11.95;;
69714;SDS011;56981;53.532;49.398;2022-07-29T01:39:14;29.17;;;12.40;;
69714;SDS011;56981;53.532;49.398;2022-07-29T01:44:40;34.13;;;12.88;;
69714;SDS011;56981;53.532;49.398;2022-07-29T01:47:14;34.55;;;12.32;;
69714;SDS011;56981;53.532;49.398;2022-07-29T01:49:46;32.35;;;13.73;;
69714;SDS011;56981;53.532;49.398;2022-07-29T01:52:20;28.88;;;11.57;;
69714;SDS011;56981;53.532;49.398;2022-07-29T01:55:03;32.35;;;12.50;;
69714;SDS011;56981;53.532;49.398;2022-07-29T01:57:34;27.73;;;13.18;;
69714;SDS011;56981;53.532;49.398;2022-07-29T02:00:03;28.13;;;12.90;;
69714;SDS011;56981;53.532;49.398;2022-07-29T02:02:31;78.97;;;30.50;;
69714;SDS011;56981;53.532;49.398;2022-07-29T02:04:59;62.45;;;26.63;;
69714;SDS011;56981;53.532;49.398;2022-07-29T02:07:28;75.95;;;30.60;;
69714;SDS011;56981;53.532;49.398;2022-07-29T02:09:56;66.72;;;27.23;;
69714;SDS011;56981;53.532;49.398;2022-07-29T02:12:23;45.33;;;19.50;;
69714;SDS011;56981;53.532;49.398;2022-07-29T02:14:53;46.28;;;21.17;;
69714;SDS011;56981;53.532;49.398;2022-07-29T02:17:31;64.38;;;30.77;;
69714;SDS011;56981;53.532;49.398;2022-07-29T02:20:02;88.20;;;43.25;;
69714;SDS011;56981;53.532;49.398;2022-07-29T02:22:30;67.13;;;36.03;;
69714;SDS011;56981;53.532;49.398;2022-07-29T02:24:59;50.03;;;27.38;;
69714;SDS011;56981;53.532;49.398;2022-07-29T02:27:26;43.38;;;20.67;;
69714;SDS011;56981;53.532;49.398;2022-07-29T02:29:54;38.65;;;19.02;;
69714;SDS011;56981;53.532;49.398;2022-07-29T02:32:23;28.42;;;16.23;;
69714;SDS011;56981;53.532;49.398;2022-07-29T02:34:51;23.13;;;12.55;;
69714;SDS011;56981;53.532;49.398;2022-07-29T02:37:18;19.08;;;10.57;;
69714;SDS011;56981;53.532;49.398;2022-07-29T02:39:45;23.25;;;13.10;;
69714;SDS011;56981;53.532;49.398;2022-07-29T02:42:13;17.33;;;11.57;;
69714;SDS011;56981;53.532;49.398;2022-07-29T02:44:41;18.65;;;11.57;;
69714;SDS011;56981;53.532;49.398;2022-07-29T02:50:02;29.15;;;16.40;;
69714;SDS011;56981;53.532;49.398;2022-07-29T02:52:43;19.83;;;10.75;;
69714;SDS011;56981;53.532;49.398;2022-07-29T03:00:31;11.32;;;7.90;;
69714;SDS011;56981;53.532;49.398;2022-07-29T03:03:03;11.63;;;8.32;;
69714;SDS011;56981;53.532;49.398;2022-07-29T03:05:34;18.35;;;10.00;;
69714;SDS011;56981;53.532;49.398;2022-07-29T03:08:01;15.80;;;8.95;;
69714;SDS011;56981;53.532;49.398;2022-07-29T03:10:30;11.10;;;7.30;;
69714;SDS011;56981;53.532;49.398;2022-07-29T03:12:57;10.93;;;6.78;;
69714;SDS011;56981;53.532;49.398;2022-07-29T03:15:24;7.63;;;6.50;;
69714;SDS011;56981;53.532;49.398;2022-07-29T03:17:51;8.00;;;6.22;;
69714;SDS011;56981;53.532;49.398;2022-07-29T03:20:18;9.43;;;5.85;;
69714;SDS011;56981;53.532;49.398;2022-07-29T03:22:44;9.45;;;6.03;;
69714;SDS011;56981;53.532;49.398;2022-07-29T03:25:14;6.25;;;5.22;;
69714;SDS011;56981;53.532;49.398;2022-07-29T03:27:42;7.72;;;5.43;;
69714;SDS011;56981;53.532;49.398;2022-07-29T03:30:09;6.68;;;5.00;;
69714;SDS011;56981;53.532;49.398;2022-07-29T03:32:36;8.52;;;5.30;;
69714;SDS011;56981;53.532;49.398;2022-07-29T03:35:03;5.85;;;5.28;;
69714;SDS011;56981;53.532;49.398;2022-07-29T03:37:30;9.43;;;5.07;;
69714;SDS011;56981;53.532;49.398;2022-07-29T03:39:59;6.30;;;5.28;;
69714;SDS011;56981;53.532;49.398;2022-07-29T03:42:28;54.50;;;9.05;;
69714;SDS011;56981;53.532;49.398;2022-07-29T03:44:57;30.90;;;6.70;;
69714;SDS011;56981;53.532;49.398;2022-07-29T03:47:25;5.85;;;4.60;;
69714;SDS011;56981;53.532;49.398;2022-07-29T03:49:56;6.20;;;5.03;;
69714;SDS011;56981;53.532;49.398;2022-07-29T03:52:30;6.43;;;4.75;;
69714;SDS011;56981;53.532;49.398;2022-07-29T03:54:56;7.25;;;4.80;;
69714;SDS011;56981;53.532;49.398;2022-07-29T03:57:27;5.10;;;4.63;;
69714;SDS011;56981;53.532;49.398;2022-07-29T03:59:54;6.03;;;4.57;;
69714;SDS011;56981;53.532;49.398;2022-07-29T04:02:20;7.38;;;4.53;;
69714;SDS011;56981;53.532;49.398;2022-07-29T04:04:48;7.78;;;5.00;;
69714;SDS011;56981;53.532;49.398;2022-07-29T04:07:14;18.48;;;6.30;;
69714;SDS011;56981;53.532;49.398;2022-07-29T04:09:41;8.40;;;5.43;;
69714;SDS011;56981;53.532;49.398;2022-07-29T04:12:07;6.10;;;5.18;;
69714;SDS011;56981;53.532;49.398;2022-07-29T04:14:33;5.70;;;5.00;;
69714;SDS011;56981;53.532;49.398;2022-07-29T04:17:01;7.43;;;4.60;;
69714;SDS011;56981;53.532;49.398;2022-07-29T04:19:28;11.90;;;6.07;;
69714;SDS011;56981;53.532;49.398;2022-07-29T04:21:54;6.80;;;4.93;;
69714;SDS011;56981;53.532;49.398;2022-07-29T04:24:20;6.43;;;4.63;;
69714;SDS011;56981;53.532;49.398;2022-07-29T04:26:46;7.30;;;4.97;;
69714;SDS011;56981;53.532;49.398;2022-07-29T04:29:13;8.23;;;4.78;;
69714;SDS011;56981;53.532;49.398;2022-07-29T04:31:42;9.82;;;4.88;;
69714;SDS011;56981;53.532;49.398;2022-07-29T04:34:09;7.28;;;4.70;;
69714;SDS011;56981;53.532;49.398;2022-07-29T04:36:36;6.30;;;4.75;;
69714;SDS011;56981;53.532;49.398;2022-07-29T04:39:02;8.73;;;5.32;;
69714;SDS011;56981;53.532;49.398;2022-07-29T04:41:29;5.90;;;5.30;;
69714;SDS011;56981;53.532;49.398;2022-07-29T04:43:56;5.35;;;4.85;;
69714;SDS011;56981;53.532;49.398;2022-07-29T04:46:22;5.72;;;5.22;;
69714;SDS011;56981;53.532;49.398;2022-07-29T04:48:48;5.80;;;4.93;;
69714;SDS011;56981;53.532;49.398;2022-07-29T04:51:15;7.65;;;5.00;;
69714;SDS011;56981;53.532;49.398;2022-07-29T04:53:41;7.00;;;5.07;;
69714;SDS011;56981;53.532;49.398;2022-07-29T04:56:07;6.10;;;5.28;;
69714;SDS011;56981;53.532;49.398;2022-07-29T04:58:34;7.88;;;5.30;;
69714;SDS011;56981;53.532;49.398;2022-07-29T05:01:01;7.03;;;5.40;;
69714;SDS011;56981;53.532;49.398;2022-07-29T05:03:28;8.13;;;5.20;;
69714;SDS011;56981;53.532;49.398;2022-07-29T05:05:54;7.72;;;5.00;;
69714;SDS011;56981;53.532;49.398;2022-07-29T05:08:20;12.07;;;5.25;;
69714;SDS011;56981;53.532;49.398;2022-07-29T05:10:46;10.32;;;5.35;;
69714;SDS011;56981;53.532;49.398;2022-07-29T05:13:12;5.95;;;4.90;;
69714;SDS011;56981;53.532;49.398;2022-07-29T05:15:38;7.90;;;5.50;;
69714;SDS011;56981;53.532;49.398;2022-07-29T05:18:05;6.75;;;4.57;;
69714;SDS011;56981;53.532;49.398;2022-07-29T05:20:31;211.27;;;19.58;;
69714;SDS011;56981;53.532;49.398;2022-07-29T05:22:58;7.18;;;5.97;;
69714;SDS011;56981;53.532;49.398;2022-07-29T05:25:26;6.53;;;4.97;;
69714;SDS011;56981;53.532;49.398;2022-07-29T05:27:53;5.30;;;4.80;;
69714;SDS011;56981;53.532;49.398;2022-07-29T05:30:19;5.55;;;4.50;;
69714;SDS011;56981;53.532;49.398;2022-07-29T05:32:46;6.30;;;5.00;;
69714;SDS011;56981;53.532;49.398;2022-07-29T05:35:13;5.82;;;5.22;;
69714;SDS011;56981;53.532;49.398;2022-07-29T05:37:40;5.53;;;4.80;;
69714;SDS011;56981;53.532;49.398;2022-07-29T05:40:06;6.93;;;5.45;;
69714;SDS011;56981;53.532;49.398;2022-07-29T05:42:33;323.95;;;48.28;;
69714;SDS011;56981;53.532;49.398;2022-07-29T05:45:00;6.80;;;5.00;;
69714;SDS011;56981;53.532;49.398;2022-07-29T05:47:27;12.88;;;5.53;;
69714;SDS011;56981;53.532;49.398;2022-07-29T05:49:53;6.97;;;5.13;;
69714;SDS011;56981;53.532;49.398;2022-07-29T05:52:19;72.95;;;13.98;;
69714;SDS011;56981;53.532;49.398;2022-07-29T05:54:46;6.68;;;5.15;;
69714;SDS011;56981;53.532;49.398;2022-07-29T05:57:19;6.65;;;4.82;;
69714;SDS011;56981;53.532;49.398;2022-07-29T05:59:47;6.72;;;5.20;;
69714;SDS011;56981;53.532;49.398;2022-07-29T06:02:14;15.82;;;5.95;;
69714;SDS011;56981;53.532;49.398;2022-07-29T06:04:41;76.13;;;9.55;;
69714;SDS011;56981;53.532;49.398;2022-07-29T06:07:07;6.13;;;4.60;;
69714;SDS011;56981;53.532;49.398;2022-07-29T06:09:34;5.97;;;4.65;;
69714;SDS011;56981;53.532;49.398;2022-07-29T06:12:00;5.10;;;4.60;;
69714;SDS011;56981;53.532;49.398;2022-07-29T06:14:26;9.15;;;4.75;;
69714;SDS011;56981;53.532;49.398;2022-07-29T06:16:54;11.40;;;4.90;;
69714;SDS011;56981;53.532;49.398;2022-07-29T06:19:20;8.05;;;4.88;;
69714;SDS011;56981;53.532;49.398;2022-07-29T06:21:47;5.47;;;5.00;;
69714;SDS011;56981;53.532;49.398;2022-07-29T06:24:13;7.63;;;4.78;;
69714;SDS011;56981;53.532;49.398;2022-07-29T06:26:41;6.13;;;5.18;;
69714;SDS011;56981;53.532;49.398;2022-07-29T06:29:07;4.55;;;4.15;;
69714;SDS011;56981;53.532;49.398;2022-07-29T06:31:36;43.38;;;7.97;;
69714;SDS011;56981;53.532;49.398;2022-07-29T06:34:02;5.18;;;4.68;;
69714;SDS011;56981;53.532;49.398;2022-07-29T06:36:29;7.97;;;4.63;;
69714;SDS011;56981;53.532;49.398;2022-07-29T06:38:59;6.20;;;4.93;;
69714;SDS011;56981;53.532;49.398;2022-07-29T06:41:25;5.35;;;4.88;;
69714;SDS011;56981;53.532;49.398;2022-07-29T06:43:51;5.68;;;4.70;;
69714;SDS011;56981;53.532;49.398;2022-07-29T06:46:21;7.10;;;4.50;;
69714;SDS011;56981;53.532;49.398;2022-07-29T06:48:48;7.78;;;4.70;;
69714;SDS011;56981;53.532;49.398;2022-07-29T06:51:15;5.32;;;4.43;;
69714;SDS011;56981;53.532;49.398;2022-07-29T06:53:42;5.05;;;3.95;;
69714;SDS011;56981;53.532;49.398;2022-07-29T06:56:08;10.20;;;4.50;;
69714;SDS011;56981;53.532;49.398;2022-07-29T06:58:35;6.22;;;4.32;;
69714;SDS011;56981;53.532;49.398;2022-07-29T07:01:02;4.60;;;4.20;;
69714;SDS011;56981;53.532;49.398;2022-07-29T07:03:30;5.85;;;4.65;;
69714;SDS011;56981;53.532;49.398;2022-07-29T07:05:57;6.40;;;4.30;;
69714;SDS011;56981;53.532;49.398;2022-07-29T07:08:23;11.13;;;5.05;;
69714;SDS011;56981;53.532;49.398;2022-07-29T07:10:50;4.80;;;4.35;;
69714;SDS011;56981;53.532;49.398;2022-07-29T07:13:16;6.88;;;4.53;;
69714;SDS011;56981;53.532;49.398;2022-07-29T07:15:43;5.35;;;4.72;;
69714;SDS011;56981;53.532;49.398;2022-07-29T07:18:10;5.43;;;4.93;;
69714;SDS011;56981;53.532;49.398;2022-07-29T07:20:36;6.25;;;5.28;;
69714;SDS011;56981;53.532;49.398;2022-07-29T07:23:03;5.50;;;4.93;;
69714;SDS011;56981;53.532;49.398;2022-07-29T07:25:30;4.70;;;4.30;;
69714;SDS011;56981;53.532;49.398;2022-07-29T07:27:56;5.63;;;5.10;;
69714;SDS011;56981;53.532;49.398;2022-07-29T07:30:22;7.90;;;4.63;;
69714;SDS011;56981;53.532;49.398;2022-07-29T07:32:48;8.65;;;5.63;;
69714;SDS011;56981;53.532;49.398;2022-07-29T07:35:14;6.15;;;5.00;;
69714;SDS011;56981;53.532;49.398;2022-07-29T07:37:41;5.47;;;4.95;;
69714;SDS011;56981;53.532;49.398;2022-07-29T07:40:08;5.50;;;4.88;;
69714;SDS011;56981;53.532;49.398;2022-07-29T07:42:37;5.97;;;4.65;;
69714;SDS011;56981;53.532;49.398;2022-07-29T07:45:04;7.68;;;4.90;;
69714;SDS011;56981;53.532;49.398;2022-07-29T07:47:31;5.28;;;4.60;;
69714;SDS011;56981;53.532;49.398;2022-07-29T07:49:59;6.80;;;4.85;;
69714;SDS011;56981;53.532;49.398;2022-07-29T07:52:25;6.18;;;5.55;;
69714;SDS011;56981;53.532;49.398;2022-07-29T07:54:52;6.57;;;5.90;;
69714;SDS011;56981;53.532;49.398;2022-07-29T07:57:18;6.80;;;6.13;;
69714;SDS011;56981;53.532;49.398;2022-07-29T07:59:44;6.97;;;5.97;;
69714;SDS011;56981;53.532;49.398;2022-07-29T08:02:10;6.97;;;6.28;;
69714;SDS011;56981;53.532;49.398;2022-07-29T08:04:37;8.82;;;6.63;;
69714;SDS011;56981;53.532;49.398;2022-07-29T08:07:06;9.48;;;5.65;;
69714;SDS011;56981;53.532;49.398;2022-07-29T08:09:33;6.28;;;5.38;;
69714;SDS011;56981;53.532;49.398;2022-07-29T08:11:59;14.20;;;6.38;;
69714;SDS011;56981;53.532;49.398;2022-07-29T08:14:32;11.40;;;6.70;;
69714;SDS011;56981;53.532;49.398;2022-07-29T08:16:58;8.75;;;6.32;;
69714;SDS011;56981;53.532;49.398;2022-07-29T08:19:25;5.93;;;5.32;;
69714;SDS011;56981;53.532;49.398;2022-07-29T08:21:51;7.28;;;5.13;;
69714;SDS011;56981;53.532;49.398;2022-07-29T08:24:19;7.03;;;5.40;;
69714;SDS011;56981;53.532;49.398;2022-07-29T08:27:04;7.38;;;5.90;;
69714;SDS011;56981;53.532;49.398;2022-07-29T08:29:30;9.70;;;5.60;;
69714;SDS011;56981;53.532;49.398;2022-07-29T08:31:56;5.35;;;4.85;;
69714;SDS011;56981;53.532;49.398;2022-07-29T08:34:22;8.90;;;5.65;;
69714;SDS011;56981;53.532;49.398;2022-07-29T08:36:48;5.97;;;5.38;;
69714;SDS011;56981;53.532;49.398;2022-07-29T08:39:14;7.68;;;5.47;;
69714;SDS011;56981;53.532;49.398;2022-07-29T08:41:40;6.80;;;5.32;;
69714;SDS011;56981;53.532;49.398;2022-07-29T08:44:06;7.72;;;5.38;;
69714;SDS011;56981;53.532;49.398;2022-07-29T08:46:37;6.00;;;5.40;;
69714;SDS011;56981;53.532;49.398;2022-07-29T08:51:30;5.32;;;4.80;;
69714;SDS011;56981;53.532;49.398;2022-07-29T08:54:01;8.48;;;4.90;;
69714;SDS011;56981;53.532;49.398;2022-07-29T08:56:28;5.20;;;4.70;;
69714;SDS011;56981;53.532;49.398;2022-07-29T08:58:55;11.18;;;5.65;;
69714;SDS011;56981;53.532;49.398;2022-07-29T09:01:25;7.85;;;5.00;;
69714;SDS011;56981;53.532;49.398;2022-07-29T09:03:56;6.95;;;4.82;;
69714;SDS011;56981;53.532;49.398;2022-07-29T09:06:27;12.05;;;6.20;;
69714;SDS011;56981;53.532;49.398;2022-07-29T09:09:00;15.82;;;5.97;;
69714;SDS011;56981;53.532;49.398;2022-07-29T09:11:26;9.07;;;5.60;;
69714;SDS011;56981;53.532;49.398;2022-07-29T09:13:53;6.85;;;5.65;;
69714;SDS011;56981;53.532;49.398;2022-07-29T09:16:19;6.47;;;5.38;;
69714;SDS011;56981;53.532;49.398;2022-07-29T09:18:46;8.13;;;5.15;;
69714;SDS011;56981;53.532;49.398;2022-07-29T09:21:13;12.25;;;5.43;;
69714;SDS011;56981;53.532;49.398;2022-07-29T09:24:13;7.82;;;5.80;;
69714;SDS011;56981;53.532;49.398;2022-07-29T09:26:40;10.52;;;6.18;;
69714;SDS011;56981;53.532;49.398;2022-07-29T09:29:09;11.93;;;6.00;;
69714;SDS011;56981;53.532;49.398;2022-07-29T09:31:37;8.13;;;6.13;;
69714;SDS011;56981;53.532;49.398;2022-07-29T09:34:05;13.48;;;6.05;;
69714;SDS011;56981;53.532;49.398;2022-07-29T09:36:39;10.32;;;6.22;;
69714;SDS011;56981;53.532;49.398;2022-07-29T09:39:07;14.48;;;6.30;;
69714;SDS011;56981;53.532;49.398;2022-07-29T09:41:55;10.98;;;6.25;;
69714;SDS011;56981;53.532;49.398;2022-07-29T09:44:21;7.18;;;4.82;;
69714;SDS011;56981;53.532;49.398;2022-07-29T09:46:55;6.97;;;5.10;;
69714;SDS011;56981;53.532;49.398;2022-07-29T09:49:23;7.75;;;5.22;;
69714;SDS011;56981;53.532;49.398;2022-07-29T09:54:32;12.00;;;5.82;;
69714;SDS011;56981;53.532;49.398;2022-07-29T09:57:05;9.75;;;6.30;;
69714;SDS011;56981;53.532;49.398;2022-07-29T09:59:35;9.80;;;6.07;;
69714;SDS011;56981;53.532;49.398;2022-07-29T10:02:01;10.10;;;5.78;;
69714;SDS011;56981;53.532;49.398;2022-07-29T10:07:04;9.23;;;5.47;;
69714;SDS011;56981;53.532;49.398;2022-07-29T10:09:31;8.73;;;5.90;;
69714;SDS011;56981;53.532;49.398;2022-07-29T10:12:12;9.38;;;6.65;;
69714;SDS011;56981;53.532;49.398;2022-07-29T10:14:41;10.23;;;6.00;;
69714;SDS011;56981;53.532;49.398;2022-07-29T10:17:09;8.02;;;5.45;;
69714;SDS011;56981;53.532;49.398;2022-07-29T10:19:37;8.48;;;5.97;;
69714;SDS011;56981;53.532;49.398;2022-07-29T10:22:05;9.60;;;6.40;;
69714;SDS011;56981;53.532;49.398;2022-07-29T10:24:33;15.45;;;6.70;;
69714;SDS011;56981;53.532;49.398;2022-07-29T10:27:02;8.57;;;6.50;;
69714;SDS011;56981;53.532;49.398;2022-07-29T10:29:29;6.68;;;4.82;;
69714;SDS011;56981;53.532;49.398;2022-07-29T10:32:18;6.10;;;5.20;;
69714;SDS011;56981;53.532;49.398;2022-07-29T10:40:18;7.43;;;5.68;;
69714;SDS011;56981;53.532;49.398;2022-07-29T10:43:29;10.82;;;6.78;;
69714;SDS011;56981;53.532;49.398;2022-07-29T10:46:01;16.02;;;7.07;;
69714;SDS011;56981;53.532;49.398;2022-07-29T10:48:28;9.80;;;6.43;;
69714;SDS011;56981;53.532;49.398;2022-07-29T10:50:56;12.63;;;5.70;;
69714;SDS011;56981;53.532;49.398;2022-07-29T10:56:33;8.23;;;5.63;;
69714;SDS011;56981;53.532;49.398;2022-07-29T10:59:45;10.07;;;6.60;;
69714;SDS011;56981;53.532;49.398;2022-07-29T11:01:46;11.90;;;7.60;;
69714;SDS011;56981;53.532;49.398;2022-07-29T11:04:13;16.08;;;7.40;;
69714;SDS011;56981;53.532;49.398;2022-07-29T11:09:24;7.30;;;6.20;;
69714;SDS011;56981;53.532;49.398;2022-07-29T11:11:50;10.77;;;7.13;;
69714;SDS011;56981;53.532;49.398;2022-07-29T11:14:17;10.57;;;6.57;;
69714;SDS011;56981;53.532;49.398;2022-07-29T11:17:03;8.70;;;6.25;;
69714;SDS011;56981;53.532;49.398;2022-07-29T11:19:30;8.90;;;6.15;;
69714;SDS011;56981;53.532;49.398;2022-07-29T11:21:57;8.25;;;6.45;;
69714;SDS011;56981;53.532;49.398;2022-07-29T11:24:24;11.80;;;7.35;;
69714;SDS011;56981;53.532;49.398;2022-07-29T11:27:06;13.98;;;7.50;;
69714;SDS011;56981;53.532;49.398;2022-07-29T11:29:38;10.07;;;7.20;;
69714;SDS011;56981;53.532;49.398;2022-07-29T11:32:10;10.95;;;7.43;;
69714;SDS011;56981;53.532;49.398;2022-07-29T11:34:40;7.80;;;5.05;;
69714;SDS011;56981;53.532;49.398;2022-07-29T11:39:40;9.48;;;6.20;;
69714;SDS011;56981;53.532;49.398;2022-07-29T11:44:56;11.98;;;6.57;;
69714;SDS011;56981;53.532;49.398;2022-07-29T11:47:26;11.93;;;6.82;;
69714;SDS011;56981;53.532;49.398;2022-07-29T11:49:56;8.93;;;7.65;;
69714;SDS011;56981;53.532;49.398;2022-07-29T11:52:23;7.95;;;7.00;;
69714;SDS011;56981;53.532;49.398;2022-07-29T11:55:03;8.50;;;6.82;;
69714;SDS011;56981;53.532;49.398;2022-07-29T11:57:31;10.68;;;7.60;;
69714;SDS011;56981;53.532;49.398;2022-07-29T12:00:00;9.43;;;7.22;;
69714;SDS011;56981;53.532;49.398;2022-07-29T12:02:37;22.15;;;8.25;;
69714;SDS011;56981;53.532;49.398;2022-07-29T12:05:05;13.13;;;7.40;;
69714;SDS011;56981;53.532;49.398;2022-07-29T12:07:32;8.18;;;6.65;;
69714;SDS011;56981;53.532;49.398;2022-07-29T12:09:59;12.05;;;7.32;;
69714;SDS011;56981;53.532;49.398;2022-07-29T12:12:26;10.32;;;7.10;;
69714;SDS011;56981;53.532;49.398;2022-07-29T12:14:52;12.32;;;7.45;;
69714;SDS011;56981;53.532;49.398;2022-07-29T12:17:33;12.07;;;7.55;;
69714;SDS011;56981;53.532;49.398;2022-07-29T12:20:01;12.73;;;7.90;;
69714;SDS011;56981;53.532;49.398;2022-07-29T12:22:29;10.20;;;7.80;;
69714;SDS011;56981;53.532;49.398;2022-07-29T12:25:05;9.88;;;7.53;;
69714;SDS011;56981;53.532;49.398;2022-07-29T12:27:33;10.23;;;7.85;;
69714;SDS011;56981;53.532;49.398;2022-07-29T12:30:00;24.25;;;8.02;;
69714;SDS011;56981;53.532;49.398;2022-07-29T12:32:31;150.57;;;15.27;;
69714;SDS011;56981;53.532;49.398;2022-07-29T12:35:12;30.27;;;9.20;;
69714;SDS011;56981;53.532;49.398;2022-07-29T12:37:40;16.48;;;8.25;;
69714;SDS011;56981;53.532;49.398;2022-07-29T12:40:10;14.70;;;7.43;;
69714;SDS011;56981;53.532;49.398;2022-07-29T12:42:39;9.75;;;7.43;;
69714;SDS011;56981;53.532;49.398;2022-07-29T12:45:06;13.00;;;8.05;;
69714;SDS011;56981;53.532;49.398;2022-07-29T12:47:33;10.85;;;7.72;;
69714;SDS011;56981;53.532;49.398;2022-07-29T12:50:16;9.85;;;7.82;;
69714;SDS011;56981;53.532;49.398;2022-07-29T12:52:43;9.60;;;7.80;;
69714;SDS011;56981;53.532;49.398;2022-07-29T12:55:10;10.10;;;7.20;;
69714;SDS011;56981;53.532;49.398;2022-07-29T12:57:47;11.73;;;7.47;;
69714;SDS011;56981;53.532;49.398;2022-07-29T13:00:16;10.43;;;7.05;;
69714;SDS011;56981;53.532;49.398;2022-07-29T13:02:42;12.38;;;7.80;;
69714;SDS011;56981;53.532;49.398;2022-07-29T13:05:12;14.48;;;7.97;;
69714;SDS011;56981;53.532;49.398;2022-07-29T13:07:38;48.25;;;10.65;;
69714;SDS011;56981;53.532;49.398;2022-07-29T13:10:12;12.32;;;9.30;;
69714;SDS011;56981;53.532;49.398;2022-07-29T13:15:27;9.82;;;7.45;;
69714;SDS011;56981;53.532;49.398;2022-07-29T13:17:53;13.95;;;8.35;;
69714;SDS011;56981;53.532;49.398;2022-07-29T13:20:23;9.82;;;7.80;;
69714;SDS011;56981;53.532;49.398;2022-07-29T13:22:50;12.75;;;8.80;;
69714;SDS011;56981;53.532;49.398;2022-07-29T13:25:23;9.20;;;7.43;;
69714;SDS011;56981;53.532;49.398;2022-07-29T13:27:51;13.30;;;8.20;;
69714;SDS011;56981;53.532;49.398;2022-07-29T13:30:17;17.05;;;8.50;;
69714;SDS011;56981;53.532;49.398;2022-07-29T13:32:43;14.32;;;8.23;;
69714;SDS011;56981;53.532;49.398;2022-07-29T13:35:10;13.98;;;8.18;;
69714;SDS011;56981;53.532;49.398;2022-07-29T13:37:36;11.85;;;8.13;;
69714;SDS011;56981;53.532;49.398;2022-07-29T13:40:06;14.73;;;8.75;;
69714;SDS011;56981;53.532;49.398;2022-07-29T13:42:33;11.20;;;7.63;;
69714;SDS011;56981;53.532;49.398;2022-07-29T13:45:00;26.90;;;8.40;;
69714;SDS011;56981;53.532;49.398;2022-07-29T13:47:27;13.07;;;8.07;;
69714;SDS011;56981;53.532;49.398;2022-07-29T13:49:54;13.30;;;8.90;;
69714;SDS011;56981;53.532;49.398;2022-07-29T13:52:20;10.25;;;7.88;;
69714;SDS011;56981;53.532;49.398;2022-07-29T13:54:47;13.10;;;8.82;;
69714;SDS011;56981;53.532;49.398;2022-07-29T13:57:13;13.60;;;8.70;;
69714;SDS011;56981;53.532;49.398;2022-07-29T13:59:41;16.50;;;7.97;;
69714;SDS011;56981;53.532;49.398;2022-07-29T14:02:08;10.35;;;7.40;;
69714;SDS011;56981;53.532;49.398;2022-07-29T14:04:35;11.80;;;8.23;;
69714;SDS011;56981;53.532;49.398;2022-07-29T14:07:01;14.98;;;7.53;;
69714;SDS011;56981;53.532;49.398;2022-07-29T14:09:28;14.60;;;8.20;;
69714;SDS011;56981;53.532;49.398;2022-07-29T14:11:54;13.90;;;8.25;;
69714;SDS011;56981;53.532;49.398;2022-07-29T14:14:20;20.52;;;8.13;;
69714;SDS011;56981;53.532;49.398;2022-07-29T14:16:47;14.60;;;8.30;;
69714;SDS011;56981;53.532;49.398;2022-07-29T14:19:13;13.82;;;7.93;;
69714;SDS011;56981;53.532;49.398;2022-07-29T14:21:39;11.73;;;8.32;;
69714;SDS011;56981;53.532;49.398;2022-07-29T14:24:05;19.30;;;7.85;;
69714;SDS011;56981;53.532;49.398;2022-07-29T14:26:32;28.35;;;8.02;;
69714;SDS011;56981;53.532;49.398;2022-07-29T14:28:58;12.20;;;7.32;;
69714;SDS011;56981;53.532;49.398;2022-07-29T14:31:24;11.93;;;7.75;;
69714;SDS011;56981;53.532;49.398;2022-07-29T14:33:53;17.92;;;7.63;;
69714;SDS011;56981;53.532;49.398;2022-07-29T14:36:19;10.65;;;7.93;;
69714;SDS011;56981;53.532;49.398;2022-07-29T14:38:45;13.00;;;7.93;;
69714;SDS011;56981;53.532;49.398;2022-07-29T14:41:11;18.52;;;8.43;;
69714;SDS011;56981;53.532;49.398;2022-07-29T14:43:37;13.27;;;7.97;;
69714;SDS011;56981;53.532;49.398;2022-07-29T14:46:03;11.30;;;7.57;;
69714;SDS011;56981;53.532;49.398;2022-07-29T14:48:30;12.48;;;8.88;;
69714;SDS011;56981;53.532;49.398;2022-07-29T14:50:56;10.50;;;7.97;;
69714;SDS011;56981;53.532;49.398;2022-07-29T14:53:22;10.32;;;8.27;;
69714;SDS011;56981;53.532;49.398;2022-07-29T14:55:48;11.35;;;8.50;;
69714;SDS011;56981;53.532;49.398;2022-07-29T14:58:14;9.20;;;7.32;;
69714;SDS011;56981;53.532;49.398;2022-07-29T15:00:41;15.32;;;7.78;;
69714;SDS011;56981;53.532;49.398;2022-07-29T15:03:07;8.95;;;7.18;;
69714;SDS011;56981;53.532;49.398;2022-07-29T15:05:35;10.38;;;7.50;;
69714;SDS011;56981;53.532;49.398;2022-07-29T15:08:02;10.95;;;8.18;;
69714;SDS011;56981;53.532;49.398;2022-07-29T15:10:28;9.00;;;7.25;;
69714;SDS011;56981;53.532;49.398;2022-07-29T15:12:55;19.15;;;8.57;;
69714;SDS011;56981;53.532;49.398;2022-07-29T15:15:22;14.15;;;7.00;;
69714;SDS011;56981;53.532;49.398;2022-07-29T15:17:48;9.98;;;6.78;;
69714;SDS011;56981;53.532;49.398;2022-07-29T15:20:14;14.50;;;7.43;;